Columbus, OH

7:41 AM EDT on August 27, 2016 (GMT -0400)
WX8Q Worthington Estates East | | Change Station
Active Advisory: Special Statement

Elev 922 ft 40.10 °N, 83.01 °W | Updated 0 second ago

Clear
Clear
72.7 °F
Feels Like 74 °F
N
0.0
Wind Variable Wind from East
Gusts 0.0 mph

Today
High -- | Low -- °F
--% Chance of Precip.
Yesterday
High -- | Low -- °F
Precip. -- in
Pressure 30.12 in
Visibility 10.0 miles
Clouds Clear
Heat Index 74 °F
Dew Point 64 °F
Humidity 74%
Rainfall 0.00 in
Snow Depth Not available.
6:55 AM 8:10 PM
Waning Crescent, 25% visible
METAR KOSU 271053Z 00000KT 10SM CLR 21/18 A3014 RMK AO2 SLP197 T02060178
Pressure 30.12 in
Visibility 10.0 miles
Clouds Clear
Heat Index 74 °F
Dew Point 64 °F
Humidity 74%
Rainfall 0.00 in
Snow Depth Not available.
6:55 AM 8:10 PM
Waning Crescent, 25% visible
METAR KOSU 271053Z 00000KT 10SM CLR 21/18 A3014 RMK AO2 SLP197 T02060178

10-Day Weather Forecast

Almanac

Astronomy

Aug. 27, 2016 Rise Set
Actual Time
Civil Twilight
Nautical Twilight
Astronomical Twilight
Moon
Length of Visible Light
Length of Day
Tomorrow will be .
, % of the Moon is Illuminated

Today's Extremes

State Highs State Lows

Community

WunderPhotos

Upload Photos

1,935,325 photos uploaded!

WunderBlog® & News

Nearby

Air Quality

  Air Quality AQ Index Pollutant
Not available.

Snow Depth

Station Depth Elevation

Earthquake Activity

City Distance Mag. Time & Date
Minimum magnitude displayed is 2.5.

Coastal Water Temperatures

Place Temperature

Stations

Nearby Weather Stations

Station Location Temp. Windchill Dew Point Humidity Wind Precip. Elev Updated Type
                   

Watches & Warnings

Special Statement
Issued: 6:01 AM EDT Aug. 27, 2016 – National Weather Service

... Very warm and humid conditions to continue today...

High temperatures in the lower and middle 90s will combine with
high humidities to produce heat indices near 100 degrees this
afternoon.

If possible... spend more time in air conditioned or well
ventilated places this afternoon. If you will be outside... wear
light weight and loose fitting clothing and drink plenty of water.

AR